sensor_id;sensor_type;location;lat;lon;timestamp;pressure;altitude;pressure_sealevel;temperature;humidity
7200;BME280;3641;49.082;8.200;2023-02-01T00:00:23;101179.84;;;3.76;100.00
7200;BME280;3641;49.082;8.200;2023-02-01T00:02:50;101162.78;;;3.75;100.00
7200;BME280;3641;49.082;8.200;2023-02-01T00:05:16;101173.59;;;3.75;100.00
7200;BME280;3641;49.082;8.200;2023-02-01T00:07:43;101153.78;;;3.75;100.00
7200;BME280;3641;49.082;8.200;2023-02-01T00:10:12;101153.31;;;3.81;100.00
7200;BME280;3641;49.082;8.200;2023-02-01T00:12:40;101150.50;;;3.82;100.00
7200;BME280;3641;49.082;8.200;2023-02-01T00:15:07;101150.13;;;3.76;100.00
7200;BME280;3641;49.082;8.200;2023-02-01T00:17:34;101147.66;;;3.84;100.00
7200;BME280;3641;49.082;8.200;2023-02-01T00:20:01;101140.06;;;3.89;100.00
7200;BME280;3641;49.082;8.200;2023-02-01T00:22:28;101135.41;;;3.80;100.00
7200;BME280;3641;49.082;8.200;2023-02-01T00:24:54;101140.81;;;3.80;100.00
7200;BME280;3641;49.082;8.200;2023-02-01T00:27:21;101141.41;;;3.84;100.00
7200;BME280;3641;49.082;8.200;2023-02-01T00:29:49;101144.59;;;3.89;100.00
7200;BME280;3641;49.082;8.200;2023-02-01T00:32:15;101147.19;;;3.90;100.00
7200;BME280;3641;49.082;8.200;2023-02-01T00:34:41;101141.53;;;3.93;100.00
7200;BME280;3641;49.082;8.200;2023-02-01T00:37:08;101123.25;;;3.86;100.00
7200;BME280;3641;49.082;8.200;2023-02-01T00:39:34;101121.91;;;3.91;100.00
7200;BME280;3641;49.082;8.200;2023-02-01T00:42:01;101113.44;;;3.85;100.00
7200;BME280;3641;49.082;8.200;2023-02-01T00:44:28;101101.53;;;3.87;100.00
7200;BME280;3641;49.082;8.200;2023-02-01T00:46:59;101112.94;;;3.79;100.00
7200;BME280;3641;49.082;8.200;2023-02-01T00:49:26;101102.88;;;3.93;100.00
7200;BME280;3641;49.082;8.200;2023-02-01T00:51:53;101093.78;;;3.82;100.00
7200;BME280;3641;49.082;8.200;2023-02-01T00:54:19;101101.41;;;3.89;100.00
7200;BME280;3641;49.082;8.200;2023-02-01T00:56:45;101096.00;;;3.89;100.00
7200;BME280;3641;49.082;8.200;2023-02-01T00:59:12;101095.03;;;3.90;100.00
7200;BME280;3641;49.082;8.200;2023-02-01T01:01:38;101093.06;;;3.92;100.00
7200;BME280;3641;49.082;8.200;2023-02-01T01:04:06;101094.91;;;3.91;100.00
7200;BME280;3641;49.082;8.200;2023-02-01T01:06:33;101095.75;;;3.80;100.00
7200;BME280;3641;49.082;8.200;2023-02-01T01:09:03;101084.81;;;3.93;100.00
7200;BME280;3641;49.082;8.200;2023-02-01T01:11:33;101099.94;;;3.85;100.00
7200;BME280;3641;49.082;8.200;2023-02-01T01:14:00;101093.66;;;3.95;100.00
7200;BME280;3641;49.082;8.200;2023-02-01T01:16:29;101101.38;;;4.00;100.00
7200;BME280;3641;49.082;8.200;2023-02-01T01:18:56;101095.63;;;3.93;100.00
7200;BME280;3641;49.082;8.200;2023-02-01T01:21:24;101097.22;;;3.96;100.00
7200;BME280;3641;49.082;8.200;2023-02-01T01:23:52;101086.16;;;3.88;100.00
7200;BME280;3641;49.082;8.200;2023-02-01T01:26:20;101086.69;;;3.93;100.00
7200;BME280;3641;49.082;8.200;2023-02-01T01:28:47;101088.00;;;3.87;100.00
7200;BME280;3641;49.082;8.200;2023-02-01T01:31:16;101090.72;;;3.87;100.00
7200;BME280;3641;49.082;8.200;2023-02-01T01:33:43;101087.91;;;3.89;100.00
7200;BME280;3641;49.082;8.200;2023-02-01T01:36:10;101098.81;;;3.98;100.00
7200;BME280;3641;49.082;8.200;2023-02-01T01:38:39;101091.06;;;3.94;100.00
7200;BME280;3641;49.082;8.200;2023-02-01T01:41:07;101084.56;;;3.96;100.00
7200;BME280;3641;49.082;8.200;2023-02-01T01:43:49;101088.47;;;4.04;99.92
7200;BME280;3641;49.082;8.200;2023-02-01T01:46:17;101087.03;;;3.99;100.00
7200;BME280;3641;49.082;8.200;2023-02-01T01:48:44;101086.19;;;3.99;100.00
7200;BME280;3641;49.082;8.200;2023-02-01T01:51:13;101082.13;;;3.93;100.00
7200;BME280;3641;49.082;8.200;2023-02-01T01:53:45;101076.09;;;4.01;99.64
7200;BME280;3641;49.082;8.200;2023-02-01T01:56:14;101077.31;;;3.97;99.84
7200;BME280;3641;49.082;8.200;2023-02-01T01:58:41;101064.06;;;3.94;100.00
7200;BME280;3641;49.082;8.200;2023-02-01T02:01:07;101058.03;;;4.02;99.25
7200;BME280;3641;49.082;8.200;2023-02-01T02:03:37;101056.59;;;3.97;99.27
7200;BME280;3641;49.082;8.200;2023-02-01T02:06:10;101057.69;;;3.95;99.29
7200;BME280;3641;49.082;8.200;2023-02-01T02:08:39;101043.34;;;3.94;98.98
7200;BME280;3641;49.082;8.200;2023-02-01T02:11:06;101046.13;;;4.04;98.66
7200;BME280;3641;49.082;8.200;2023-02-01T02:13:37;101049.56;;;4.06;98.39
7200;BME280;3641;49.082;8.200;2023-02-01T02:16:17;101050.81;;;4.02;98.78
7200;BME280;3641;49.082;8.200;2023-02-01T02:18:57;101058.28;;;4.10;98.59
7200;BME280;3641;49.082;8.200;2023-02-01T02:21:42;101061.72;;;4.12;98.40
7200;BME280;3641;49.082;8.200;2023-02-01T02:24:34;101063.28;;;4.14;97.48
7200;BME280;3641;49.082;8.200;2023-02-01T02:27:14;101060.72;;;4.13;98.11
7200;BME280;3641;49.082;8.200;2023-02-01T02:30:20;101067.00;;;4.13;98.00
7200;BME280;3641;49.082;8.200;2023-02-01T02:36:00;101070.69;;;4.12;98.07
7200;BME280;3641;49.082;8.200;2023-02-01T02:38:33;101058.63;;;4.05;97.89
7200;BME280;3641;49.082;8.200;2023-02-01T02:41:09;101060.47;;;4.16;97.96
7200;BME280;3641;49.082;8.200;2023-02-01T02:44:01;101049.06;;;4.12;97.88
7200;BME280;3641;49.082;8.200;2023-02-01T02:46:50;101048.81;;;4.15;98.67
7200;BME280;3641;49.082;8.200;2023-02-01T02:49:40;101053.25;;;4.16;98.71
7200;BME280;3641;49.082;8.200;2023-02-01T02:52:12;101048.31;;;4.22;98.52
7200;BME280;3641;49.082;8.200;2023-02-01T02:54:59;101054.94;;;4.17;98.75
7200;BME280;3641;49.082;8.200;2023-02-01T02:57:31;101056.28;;;4.23;98.47
7200;BME280;3641;49.082;8.200;2023-02-01T03:00:19;101055.41;;;4.23;98.63
7200;BME280;3641;49.082;8.200;2023-02-01T03:03:04;101040.56;;;4.28;98.42
7200;BME280;3641;49.082;8.200;2023-02-01T03:05:49;101034.28;;;4.28;98.17
7200;BME280;3641;49.082;8.200;2023-02-01T03:08:18;101024.09;;;4.31;98.05
7200;BME280;3641;49.082;8.200;2023-02-01T03:10:50;101027.75;;;4.30;98.47
7200;BME280;3641;49.082;8.200;2023-02-01T03:13:27;101029.16;;;4.25;98.38
7200;BME280;3641;49.082;8.200;2023-02-01T03:15:58;101013.19;;;4.22;98.52
7200;BME280;3641;49.082;8.200;2023-02-01T03:18:31;101025.34;;;4.16;98.59
7200;BME280;3641;49.082;8.200;2023-02-01T03:21:02;101009.97;;;4.28;98.51
7200;BME280;3641;49.082;8.200;2023-02-01T03:23:33;101008.13;;;4.28;97.73
7200;BME280;3641;49.082;8.200;2023-02-01T03:26:03;101023.56;;;4.38;97.51
7200;BME280;3641;49.082;8.200;2023-02-01T03:28:33;101012.81;;;4.26;97.44
7200;BME280;3641;49.082;8.200;2023-02-01T03:31:01;101018.81;;;4.30;97.70
7200;BME280;3641;49.082;8.200;2023-02-01T03:33:29;101009.22;;;4.26;98.23
7200;BME280;3641;49.082;8.200;2023-02-01T03:36:00;101003.09;;;4.24;97.43
7200;BME280;3641;49.082;8.200;2023-02-01T03:38:33;101023.47;;;4.28;97.19
7200;BME280;3641;49.082;8.200;2023-02-01T03:41:09;101011.03;;;4.36;97.58
7200;BME280;3641;49.082;8.200;2023-02-01T03:43:43;101007.00;;;4.31;96.88
7200;BME280;3641;49.082;8.200;2023-02-01T03:46:17;101019.16;;;4.36;96.99
7200;BME280;3641;49.082;8.200;2023-02-01T03:48:45;101018.28;;;4.36;97.17
7200;BME280;3641;49.082;8.200;2023-02-01T03:51:12;101028.13;;;4.26;97.45
7200;BME280;3641;49.082;8.200;2023-02-01T03:53:42;101029.03;;;4.26;97.99
7200;BME280;3641;49.082;8.200;2023-02-01T03:56:12;101039.81;;;4.26;98.42
7200;BME280;3641;49.082;8.200;2023-02-01T03:58:38;101039.06;;;4.24;99.02
7200;BME280;3641;49.082;8.200;2023-02-01T04:01:05;101030.75;;;4.16;98.90
7200;BME280;3641;49.082;8.200;2023-02-01T04:03:31;101020.91;;;4.26;99.07
7200;BME280;3641;49.082;8.200;2023-02-01T04:05:58;101033.78;;;4.23;98.57
7200;BME280;3641;49.082;8.200;2023-02-01T04:08:24;101044.44;;;4.35;98.33
7200;BME280;3641;49.082;8.200;2023-02-01T04:10:52;101052.84;;;4.21;98.64
7200;BME280;3641;49.082;8.200;2023-02-01T04:13:19;101050.38;;;4.29;97.82
7200;BME280;3641;49.082;8.200;2023-02-01T04:15:46;101041.75;;;4.35;97.93
7200;BME280;3641;49.082;8.200;2023-02-01T04:18:15;101042.91;;;4.22;98.25
7200;BME280;3641;49.082;8.200;2023-02-01T04:20:42;101045.69;;;4.31;97.92
7200;BME280;3641;49.082;8.200;2023-02-01T04:23:09;101048.44;;;4.20;99.27
7200;BME280;3641;49.082;8.200;2023-02-01T04:25:35;101040.50;;;4.07;99.55
7200;BME280;3641;49.082;8.200;2023-02-01T04:28:03;101034.72;;;4.12;100.00
7200;BME280;3641;49.082;8.200;2023-02-01T04:30:30;101031.75;;;4.04;100.00
7200;BME280;3641;49.082;8.200;2023-02-01T04:32:56;101022.94;;;3.90;100.00
7200;BME280;3641;49.082;8.200;2023-02-01T04:35:22;101018.25;;;4.04;100.00
7200;BME280;3641;49.082;8.200;2023-02-01T04:37:49;101032.28;;;3.97;100.00
7200;BME280;3641;49.082;8.200;2023-02-01T04:40:15;101041.34;;;4.08;100.00
7200;BME280;3641;49.082;8.200;2023-02-01T04:42:42;101035.84;;;3.98;100.00
7200;BME280;3641;49.082;8.200;2023-02-01T04:45:10;101039.75;;;3.94;100.00
7200;BME280;3641;49.082;8.200;2023-02-01T04:47:37;101031.91;;;3.91;100.00
7200;BME280;3641;49.082;8.200;2023-02-01T04:50:04;101031.63;;;4.05;100.00
7200;BME280;3641;49.082;8.200;2023-02-01T04:52:32;101029.44;;;3.88;100.00
7200;BME280;3641;49.082;8.200;2023-02-01T04:54:59;101013.13;;;3.89;100.00
7200;BME280;3641;49.082;8.200;2023-02-01T04:57:27;101014.47;;;3.95;100.00
7200;BME280;3641;49.082;8.200;2023-02-01T04:59:53;101028.19;;;4.03;100.00
7200;BME280;3641;49.082;8.200;2023-02-01T05:02:21;101038.25;;;4.12;100.00
7200;BME280;3641;49.082;8.200;2023-02-01T05:04:47;101034.09;;;3.97;100.00
7200;BME280;3641;49.082;8.200;2023-02-01T05:07:15;101039.00;;;4.03;100.00
7200;BME280;3641;49.082;8.200;2023-02-01T05:09:41;101043.44;;;4.04;100.00
7200;BME280;3641;49.082;8.200;2023-02-01T05:12:08;101037.03;;;4.05;100.00
7200;BME280;3641;49.082;8.200;2023-02-01T05:14:58;101021.56;;;4.07;100.00
7200;BME280;3641;49.082;8.200;2023-02-01T05:17:26;101037.16;;;4.15;100.00
7200;BME280;3641;49.082;8.200;2023-02-01T05:19:52;101038.78;;;3.95;100.00
7200;BME280;3641;49.082;8.200;2023-02-01T05:22:19;101029.59;;;3.97;100.00
7200;BME280;3641;49.082;8.200;2023-02-01T05:24:45;101029.69;;;4.07;100.00
7200;BME280;3641;49.082;8.200;2023-02-01T05:27:12;101033.09;;;4.09;100.00
7200;BME280;3641;49.082;8.200;2023-02-01T05:29:38;101031.25;;;4.10;100.00
7200;BME280;3641;49.082;8.200;2023-02-01T05:32:05;101033.56;;;4.14;100.00
7200;BME280;3641;49.082;8.200;2023-02-01T05:34:33;101036.91;;;4.07;100.00
7200;BME280;3641;49.082;8.200;2023-02-01T05:36:59;101036.66;;;4.10;100.00
7200;BME280;3641;49.082;8.200;2023-02-01T05:39:25;101027.78;;;4.19;100.00
7200;BME280;3641;49.082;8.200;2023-02-01T05:41:52;101026.22;;;4.16;100.00
7200;BME280;3641;49.082;8.200;2023-02-01T05:44:18;101021.88;;;4.25;100.00
7200;BME280;3641;49.082;8.200;2023-02-01T05:46:45;101016.88;;;4.21;100.00
7200;BME280;3641;49.082;8.200;2023-02-01T05:49:11;101006.88;;;4.32;99.59
7200;BME280;3641;49.082;8.200;2023-02-01T05:51:39;101009.88;;;4.18;100.00
7200;BME280;3641;49.082;8.200;2023-02-01T05:54:06;101020.81;;;4.16;100.00
7200;BME280;3641;49.082;8.200;2023-02-01T05:56:32;101013.19;;;4.22;100.00
7200;BME280;3641;49.082;8.200;2023-02-01T05:58:58;101023.09;;;4.32;100.00
7200;BME280;3641;49.082;8.200;2023-02-01T06:01:25;101018.41;;;4.34;100.00
7200;BME280;3641;49.082;8.200;2023-02-01T06:03:51;101013.31;;;4.20;100.00
7200;BME280;3641;49.082;8.200;2023-02-01T06:06:18;101011.19;;;4.24;100.00
7200;BME280;3641;49.082;8.200;2023-02-01T06:08:46;101020.91;;;4.26;100.00
7200;BME280;3641;49.082;8.200;2023-02-01T06:11:12;101021.88;;;4.25;100.00
7200;BME280;3641;49.082;8.200;2023-02-01T06:13:39;101011.78;;;4.27;100.00
7200;BME280;3641;49.082;8.200;2023-02-01T06:16:06;101011.06;;;4.25;100.00
7200;BME280;3641;49.082;8.200;2023-02-01T06:18:33;101001.38;;;4.23;100.00
7200;BME280;3641;49.082;8.200;2023-02-01T06:20:59;101001.38;;;4.23;100.00
7200;BME280;3641;49.082;8.200;2023-02-01T06:23:26;101010.81;;;4.28;100.00
7200;BME280;3641;49.082;8.200;2023-02-01T06:26:00;100995.31;;;4.30;100.00
7200;BME280;3641;49.082;8.200;2023-02-01T06:28:27;101011.16;;;4.35;100.00
7200;BME280;3641;49.082;8.200;2023-02-01T06:30:54;101001.31;;;4.34;100.00
7200;BME280;3641;49.082;8.200;2023-02-01T06:33:20;101010.66;;;4.41;100.00
7200;BME280;3641;49.082;8.200;2023-02-01T06:35:47;101024.13;;;4.52;100.00
7200;BME280;3641;49.082;8.200;2023-02-01T06:38:14;101030.03;;;4.46;99.81
7200;BME280;3641;49.082;8.200;2023-02-01T06:40:40;101026.56;;;4.55;99.84
7200;BME280;3641;49.082;8.200;2023-02-01T06:43:08;101032.34;;;4.51;99.92
7200;BME280;3641;49.082;8.200;2023-02-01T06:45:35;101023.16;;;4.53;99.07
7200;BME280;3641;49.082;8.200;2023-02-01T06:48:01;101038.22;;;4.56;98.90
7200;BME280;3641;49.082;8.200;2023-02-01T06:50:28;101033.19;;;4.63;98.50
7200;BME280;3641;49.082;8.200;2023-02-01T06:52:54;101047.94;;;4.59;98.91
7200;BME280;3641;49.082;8.200;2023-02-01T06:55:21;101064.66;;;4.52;99.56
7200;BME280;3641;49.082;8.200;2023-02-01T06:57:48;101064.53;;;4.54;100.00
7200;BME280;3641;49.082;8.200;2023-02-01T07:00:21;101073.25;;;4.58;100.00
7200;BME280;3641;49.082;8.200;2023-02-01T07:02:47;101063.06;;;4.61;100.00
7200;BME280;3641;49.082;8.200;2023-02-01T07:05:14;101065.13;;;4.58;99.91
7200;BME280;3641;49.082;8.200;2023-02-01T07:07:40;101066.41;;;4.53;100.00
7200;BME280;3641;49.082;8.200;2023-02-01T07:10:07;101069.44;;;4.60;100.00
7200;BME280;3641;49.082;8.200;2023-02-01T07:12:34;101068.47;;;4.61;99.72
7200;BME280;3641;49.082;8.200;2023-02-01T07:15:01;101080.13;;;4.62;100.00
7200;BME280;3641;49.082;8.200;2023-02-01T07:17:29;101064.38;;;4.67;100.00
7200;BME280;3641;49.082;8.200;2023-02-01T07:19:55;101064.50;;;4.65;99.39
7200;BME280;3641;49.082;8.200;2023-02-01T07:22:23;101058.63;;;4.60;99.59
7200;BME280;3641;49.082;8.200;2023-02-01T07:24:50;101067.25;;;4.54;100.00
7200;BME280;3641;49.082;8.200;2023-02-01T07:27:16;101057.78;;;4.60;100.00
7200;BME280;3641;49.082;8.200;2023-02-01T07:29:43;101055.78;;;4.62;99.46
7200;BME280;3641;49.082;8.200;2023-02-01T07:32:09;101067.59;;;4.61;99.52
7200;BME280;3641;49.082;8.200;2023-02-01T07:34:37;101047.44;;;4.65;99.36
7200;BME280;3641;49.082;8.200;2023-02-01T07:37:04;101060.69;;;4.68;99.02
7200;BME280;3641;49.082;8.200;2023-02-01T07:39:30;101050.25;;;4.63;99.07
7200;BME280;3641;49.082;8.200;2023-02-01T07:41:57;101046.16;;;4.69;98.25
7200;BME280;3641;49.082;8.200;2023-02-01T07:44:23;101050.00;;;4.66;98.29
7200;BME280;3641;49.082;8.200;2023-02-01T07:46:50;101043.41;;;4.80;97.26
7200;BME280;3641;49.082;8.200;2023-02-01T07:49:16;101038.78;;;4.71;97.39
7200;BME280;3641;49.082;8.200;2023-02-01T07:51:44;101042.72;;;4.67;97.27
7200;BME280;3641;49.082;8.200;2023-02-01T07:54:11;101038.66;;;4.72;97.24
7200;BME280;3641;49.082;8.200;2023-02-01T07:56:37;101041.25;;;4.74;96.66
7200;BME280;3641;49.082;8.200;2023-02-01T07:59:04;101046.97;;;4.81;96.93
7200;BME280;3641;49.082;8.200;2023-02-01T08:01:32;101045.78;;;4.73;95.93
7200;BME280;3641;49.082;8.200;2023-02-01T08:03:59;101051.38;;;4.82;96.62
7200;BME280;3641;49.082;8.200;2023-02-01T08:06:27;101057.94;;;4.79;96.30
7200;BME280;3641;49.082;8.200;2023-02-01T08:08:55;101067.16;;;4.77;95.21
7200;BME280;3641;49.082;8.200;2023-02-01T08:11:23;101065.13;;;4.90;95.34
7200;BME280;3641;49.082;8.200;2023-02-01T08:13:50;101073.66;;;4.85;95.41
7200;BME280;3641;49.082;8.200;2023-02-01T08:16:18;101085.44;;;4.84;94.81
7200;BME280;3641;49.082;8.200;2023-02-01T08:18:45;101089.63;;;4.88;94.72
7200;BME280;3641;49.082;8.200;2023-02-01T08:21:13;101090.34;;;4.90;94.33
7200;BME280;3641;49.082;8.200;2023-02-01T08:23:41;101090.22;;;4.92;94.70
7200;BME280;3641;49.082;8.200;2023-02-01T08:26:12;101101.28;;;4.89;95.08
7200;BME280;3641;49.082;8.200;2023-02-01T08:28:40;101104.72;;;4.91;94.67
7200;BME280;3641;49.082;8.200;2023-02-01T08:31:09;101107.63;;;4.99;95.00
7200;BME280;3641;49.082;8.200;2023-02-01T08:33:35;101106.78;;;4.99;94.94
7200;BME280;3641;49.082;8.200;2023-02-01T08:36:04;101124.78;;;4.88;94.79
7200;BME280;3641;49.082;8.200;2023-02-01T08:38:31;101126.75;;;4.86;94.45
7200;BME280;3641;49.082;8.200;2023-02-01T08:41:04;101112.56;;;4.94;94.13
7200;BME280;3641;49.082;8.200;2023-02-01T08:43:31;101112.91;;;5.01;94.12
7200;BME280;3641;49.082;8.200;2023-02-01T08:45:58;101103.34;;;4.97;94.21
7200;BME280;3641;49.082;8.200;2023-02-01T08:48:24;101108.03;;;4.95;94.26
7200;BME280;3641;49.082;8.200;2023-02-01T08:50:51;101107.16;;;4.94;93.56
7200;BME280;3641;49.082;8.200;2023-02-01T08:53:17;101113.91;;;5.00;93.92
7200;BME280;3641;49.082;8.200;2023-02-01T08:55:45;101111.59;;;4.95;92.98
7200;BME280;3641;49.082;8.200;2023-02-01T08:58:12;101114.88;;;4.99;92.55
7200;BME280;3641;49.082;8.200;2023-02-01T09:00:40;101116.50;;;5.01;92.34
7200;BME280;3641;49.082;8.200;2023-02-01T09:03:09;101119.06;;;5.03;92.45
7200;BME280;3641;49.082;8.200;2023-02-01T09:05:36;101118.13;;;5.14;92.73
7200;BME280;3641;49.082;8.200;2023-02-01T09:08:03;101130.22;;;5.09;91.77
7200;BME280;3641;49.082;8.200;2023-02-01T09:10:30;101121.50;;;5.06;91.90
7200;BME280;3641;49.082;8.200;2023-02-01T09:12:57;101129.69;;;5.16;92.20
7200;BME280;3641;49.082;8.200;2023-02-01T09:15:23;101131.94;;;5.11;91.75
7200;BME280;3641;49.082;8.200;2023-02-01T09:17:51;101124.69;;;5.11;91.20
7200;BME280;3641;49.082;8.200;2023-02-01T09:20:18;101122.69;;;5.13;90.43
7200;BME280;3641;49.082;8.200;2023-02-01T09:22:49;101125.53;;;5.12;90.27
7200;BME280;3641;49.082;8.200;2023-02-01T09:25:16;101116.88;;;5.18;90.42
7200;BME280;3641;49.082;8.200;2023-02-01T09:27:42;101122.03;;;5.21;90.73
7200;BME280;3641;49.082;8.200;2023-02-01T09:30:09;101108.63;;;5.19;89.46
7200;BME280;3641;49.082;8.200;2023-02-01T09:32:36;101109.47;;;5.20;89.53
7200;BME280;3641;49.082;8.200;2023-02-01T09:35:05;101110.63;;;5.17;89.59
7200;BME280;3641;49.082;8.200;2023-02-01T09:37:31;101111.22;;;5.21;89.92
7200;BME280;3641;49.082;8.200;2023-02-01T09:39:58;101131.19;;;5.30;90.82
7200;BME280;3641;49.082;8.200;2023-02-01T09:42:41;101127.78;;;5.27;89.99
7200;BME280;3641;49.082;8.200;2023-02-01T09:45:20;101130.03;;;5.22;88.93
7200;BME280;3641;49.082;8.200;2023-02-01T09:47:53;101121.53;;;5.27;89.46
7200;BME280;3641;49.082;8.200;2023-02-01T09:50:28;101144.41;;;5.23;89.50
7200;BME280;3641;49.082;8.200;2023-02-01T09:53:01;101148.00;;;5.23;89.17
7200;BME280;3641;49.082;8.200;2023-02-01T09:55:32;101154.84;;;5.27;89.14
7200;BME280;3641;49.082;8.200;2023-02-01T09:58:05;101164.44;;;5.32;89.89
7200;BME280;3641;49.082;8.200;2023-02-01T10:00:35;101168.97;;;5.31;88.95
7200;BME280;3641;49.082;8.200;2023-02-01T10:03:02;101174.63;;;5.39;89.52
7200;BME280;3641;49.082;8.200;2023-02-01T10:05:43;101171.81;;;5.30;88.10
7200;BME280;3641;49.082;8.200;2023-02-01T10:08:19;101182.38;;;5.33;87.98
7200;BME280;3641;49.082;8.200;2023-02-01T10:10:53;101178.94;;;5.31;87.17
7200;BME280;3641;49.082;8.200;2023-02-01T10:13:39;101177.03;;;5.42;86.85
7200;BME280;3641;49.082;8.200;2023-02-01T10:16:17;101177.31;;;5.39;86.48
7200;BME280;3641;49.082;8.200;2023-02-01T10:19:02;101173.59;;;5.40;86.82
7200;BME280;3641;49.082;8.200;2023-02-01T10:21:42;101179.47;;;5.45;87.33
7200;BME280;3641;49.082;8.200;2023-02-01T10:24:28;101185.50;;;5.49;87.27
7200;BME280;3641;49.082;8.200;2023-02-01T10:27:02;101177.91;;;5.43;86.65
7200;BME280;3641;49.082;8.200;2023-02-01T10:29:35;101169.28;;;5.49;87.15
7200;BME280;3641;49.082;8.200;2023-02-01T10:32:03;101168.75;;;5.55;86.91
7200;BME280;3641;49.082;8.200;2023-02-01T10:34:36;101173.03;;;5.58;87.09
7200;BME280;3641;49.082;8.200;2023-02-01T10:37:15;101171.84;;;5.51;86.08
7200;BME280;3641;49.082;8.200;2023-02-01T10:39:45;101171.91;;;5.60;87.02
7200;BME280;3641;49.082;8.200;2023-02-01T10:42:12;101171.31;;;5.57;85.64
7200;BME280;3641;49.082;8.200;2023-02-01T10:44:42;101179.03;;;5.61;86.18
7200;BME280;3641;49.082;8.200;2023-02-01T10:47:10;101190.41;;;5.55;85.49
7200;BME280;3641;49.082;8.200;2023-02-01T10:49:41;101195.53;;;5.58;85.85
7200;BME280;3641;49.082;8.200;2023-02-01T10:52:14;101204.66;;;5.57;85.88
7200;BME280;3641;49.082;8.200;2023-02-01T10:54:42;101189.41;;;5.56;85.92
7200;BME280;3641;49.082;8.200;2023-02-01T10:57:10;101201.97;;;5.57;85.87
7200;BME280;3641;49.082;8.200;2023-02-01T10:59:37;101196.41;;;5.59;85.61
7200;BME280;3641;49.082;8.200;2023-02-01T11:02:15;101188.53;;;5.56;85.78
7200;BME280;3641;49.082;8.200;2023-02-01T11:04:44;101176.56;;;5.58;86.87
7200;BME280;3641;49.082;8.200;2023-02-01T11:07:17;101179.16;;;5.60;86.03
7200;BME280;3641;49.082;8.200;2023-02-01T11:09:49;101163.19;;;5.57;85.40
7200;BME280;3641;49.082;8.200;2023-02-01T11:12:26;101156.44;;;5.51;84.26
7200;BME280;3641;49.082;8.200;2023-02-01T11:14:59;101161.91;;;5.61;85.64
7200;BME280;3641;49.082;8.200;2023-02-01T11:17:31;101139.09;;;5.54;84.08
7200;BME280;3641;49.082;8.200;2023-02-01T11:19:59;101121.69;;;5.56;83.99
7200;BME280;3641;49.082;8.200;2023-02-01T11:22:28;101121.44;;;5.59;84.69
7200;BME280;3641;49.082;8.200;2023-02-01T11:24:55;101132.53;;;5.56;83.10
7200;BME280;3641;49.082;8.200;2023-02-01T11:27:23;101118.53;;;5.51;82.30
7200;BME280;3641;49.082;8.200;2023-02-01T11:29:52;101117.88;;;5.59;83.89
7200;BME280;3641;49.082;8.200;2023-02-01T11:32:22;101114.44;;;5.57;82.30
7200;BME280;3641;49.082;8.200;2023-02-01T11:34:52;101111.03;;;5.64;84.25
7200;BME280;3641;49.082;8.200;2023-02-01T11:37:21;101103.00;;;5.53;82.74
7200;BME280;3641;49.082;8.200;2023-02-01T11:39:55;101105.44;;;5.56;83.72
7200;BME280;3641;49.082;8.200;2023-02-01T11:42:23;101102.06;;;5.64;84.40
7200;BME280;3641;49.082;8.200;2023-02-01T11:44:49;101094.63;;;5.56;83.39
7200;BME280;3641;49.082;8.200;2023-02-01T11:47:19;101108.72;;;5.60;83.46
7200;BME280;3641;49.082;8.200;2023-02-01T11:49:46;101108.28;;;5.55;82.74
7200;BME280;3641;49.082;8.200;2023-02-01T11:52:20;101107.00;;;5.49;81.39
7200;BME280;3641;49.082;8.200;2023-02-01T11:55:10;101106.38;;;5.67;83.41
7200;BME280;3641;49.082;8.200;2023-02-01T11:57:50;101105.31;;;5.58;83.07
7200;BME280;3641;49.082;8.200;2023-02-01T12:00:32;101102.16;;;5.53;81.42
7200;BME280;3641;49.082;8.200;2023-02-01T12:03:18;101112.00;;;5.54;80.58
7200;BME280;3641;49.082;8.200;2023-02-01T12:05:56;101110.84;;;5.56;80.78
7200;BME280;3641;49.082;8.200;2023-02-01T12:08:55;101107.03;;;5.59;80.68
7200;BME280;3641;49.082;8.200;2023-02-01T12:11:38;101105.03;;;5.61;80.90
7200;BME280;3641;49.082;8.200;2023-02-01T12:14:23;101114.16;;;5.60;79.79
7200;BME280;3641;49.082;8.200;2023-02-01T12:17:06;101100.06;;;5.66;79.48
7200;BME280;3641;49.082;8.200;2023-02-01T12:19:53;101106.38;;;5.67;80.91
7200;BME280;3641;49.082;8.200;2023-02-01T12:22:36;101114.91;;;5.62;79.79
7200;BME280;3641;49.082;8.200;2023-02-01T12:25:26;101111.91;;;5.65;81.40
7200;BME280;3641;49.082;8.200;2023-02-01T12:28:29;101114.91;;;5.62;81.32
7200;BME280;3641;49.082;8.200;2023-02-01T12:31:14;101116.47;;;5.64;82.21
7200;BME280;3641;49.082;8.200;2023-02-01T12:33:58;101090.38;;;5.63;81.08
7200;BME280;3641;49.082;8.200;2023-02-01T12:36:32;101089.97;;;5.68;82.67
7200;BME280;3641;49.082;8.200;2023-02-01T12:39:09;101096.25;;;5.69;82.52
7200;BME280;3641;49.082;8.200;2023-02-01T12:41:48;101090.25;;;5.65;82.82
7200;BME280;3641;49.082;8.200;2023-02-01T12:44:25;101087.53;;;5.65;82.78
7200;BME280;3641;49.082;8.200;2023-02-01T12:46:55;101085.38;;;5.59;81.78
7200;BME280;3641;49.082;8.200;2023-02-01T12:49:29;101085.50;;;5.57;80.85
7200;BME280;3641;49.082;8.200;2023-02-01T12:52:00;101096.53;;;5.66;83.18
7200;BME280;3641;49.082;8.200;2023-02-01T12:54:33;101088.47;;;5.54;82.01
7200;BME280;3641;49.082;8.200;2023-02-01T12:57:03;101087.38;;;5.57;82.01
7200;BME280;3641;49.082;8.200;2023-02-01T12:59:35;101096.53;;;5.66;83.00
7200;BME280;3641;49.082;8.200;2023-02-01T13:02:10;101089.66;;;5.61;81.97
7200;BME280;3641;49.082;8.200;2023-02-01T13:04:45;101075.84;;;5.64;83.22
7200;BME280;3641;49.082;8.200;2023-02-01T13:07:18;101079.56;;;5.63;81.46
7200;BME280;3641;49.082;8.200;2023-02-01T13:09:52;101073.38;;;5.61;78.79
7200;BME280;3641;49.082;8.200;2023-02-01T13:12:23;101070.69;;;5.61;79.09
7200;BME280;3641;49.082;8.200;2023-02-01T13:14:55;101064.19;;;5.74;79.90
7200;BME280;3641;49.082;8.200;2023-02-01T13:17:25;101060.19;;;5.68;77.77
7200;BME280;3641;49.082;8.200;2023-02-01T13:19:56;101061.75;;;5.71;79.64
7200;BME280;3641;49.082;8.200;2023-02-01T13:22:27;101060.47;;;5.65;77.41
7200;BME280;3641;49.082;8.200;2023-02-01T13:24:57;101051.31;;;5.66;75.92
7200;BME280;3641;49.082;8.200;2023-02-01T13:27:26;101046.66;;;5.68;75.67
7200;BME280;3641;49.082;8.200;2023-02-01T13:29:58;101041.09;;;5.70;77.28
7200;BME280;3641;49.082;8.200;2023-02-01T13:32:41;101029.38;;;5.69;76.36
7200;BME280;3641;49.082;8.200;2023-02-01T13:35:23;101023.13;;;5.69;77.44
7200;BME280;3641;49.082;8.200;2023-02-01T13:38:18;101024.09;;;5.68;77.37